createdAt,value
2018-07-26T00:00:10.992Z,0.00
2018-07-26T00:01:11.217Z,0.00
2018-07-26T00:02:11.462Z,0.00
2018-07-26T00:03:11.716Z,0.00
2018-07-26T00:04:11.999Z,0.00
2018-07-26T00:05:12.246Z,0.00
2018-07-26T00:06:12.493Z,0.00
2018-07-26T00:07:12.739Z,0.00
2018-07-26T00:08:12.984Z,0.00
2018-07-26T00:09:13.229Z,0.00
2018-07-26T00:10:13.476Z,0.00
2018-07-26T00:11:13.719Z,0.00
2018-07-26T00:12:13.966Z,0.00
2018-07-26T00:13:14.239Z,0.00
2018-07-26T00:14:14.484Z,0.00
2018-07-26T00:15:14.728Z,0.00
2018-07-26T00:16:14.969Z,0.00
2018-07-26T00:17:15.215Z,0.00
2018-07-26T00:18:15.461Z,0.00
2018-07-26T00:19:15.705Z,0.00
2018-07-26T00:20:15.950Z,0.00
2018-07-26T00:21:16.191Z,0.00
2018-07-26T00:22:16.444Z,0.00
2018-07-26T00:23:16.685Z,0.00
2018-07-26T00:24:16.931Z,0.00
2018-07-26T00:25:17.174Z,0.00
2018-07-26T00:26:17.419Z,0.00
2018-07-26T00:27:17.662Z,0.00
2018-07-26T00:28:17.907Z,0.00
2018-07-26T00:29:18.152Z,0.00
2018-07-26T00:30:18.398Z,0.00
2018-07-26T00:31:18.644Z,0.00
2018-07-26T00:32:18.888Z,0.00
2018-07-26T00:33:19.134Z,0.00
2018-07-26T00:34:19.377Z,0.00
2018-07-26T00:35:19.627Z,0.00
2018-07-26T00:36:19.870Z,0.00
2018-07-26T00:37:20.119Z,0.00
2018-07-26T00:38:20.366Z,0.00
2018-07-26T00:39:20.610Z,0.00
2018-07-26T00:40:20.853Z,0.00
2018-07-26T00:41:21.112Z,0.00
2018-07-26T00:42:21.346Z,0.00
2018-07-26T00:43:21.588Z,0.00
2018-07-26T00:44:21.831Z,0.00
2018-07-26T00:45:22.077Z,0.00
2018-07-26T00:46:22.325Z,0.00
2018-07-26T00:47:22.572Z,0.00
2018-07-26T00:48:22.817Z,0.00
2018-07-26T00:49:23.063Z,0.00
2018-07-26T00:50:23.306Z,0.00
2018-07-26T00:51:23.551Z,0.00
2018-07-26T00:52:23.795Z,0.00
2018-07-26T00:53:24.042Z,0.00
2018-07-26T00:54:24.286Z,0.00
2018-07-26T00:55:24.534Z,0.00
2018-07-26T00:56:24.773Z,0.00
2018-07-26T00:57:25.027Z,0.00
2018-07-26T00:58:25.264Z,0.00
2018-07-26T00:59:25.512Z,0.00
2018-07-26T01:00:25.752Z,0.00
2018-07-26T01:01:25.997Z,0.00
2018-07-26T01:02:26.241Z,0.00
2018-07-26T01:03:26.486Z,0.00
2018-07-26T01:04:26.731Z,0.00
2018-07-26T01:05:26.975Z,0.00
2018-07-26T01:06:27.226Z,0.00
2018-07-26T01:07:27.464Z,0.00
2018-07-26T01:08:27.708Z,0.00
2018-07-26T01:09:28.007Z,0.00
2018-07-26T01:10:28.198Z,0.00
2018-07-26T01:11:28.443Z,0.00
2018-07-26T01:12:28.688Z,0.00
2018-07-26T01:13:28.932Z,0.00
2018-07-26T01:14:29.176Z,0.00
2018-07-26T01:15:29.424Z,0.00
2018-07-26T01:16:29.667Z,0.00
2018-07-26T01:17:29.911Z,0.00
2018-07-26T01:18:30.156Z,0.00
2018-07-26T01:19:30.401Z,0.00
2018-07-26T01:20:30.647Z,0.00
2018-07-26T01:21:30.892Z,0.00
2018-07-26T01:22:31.135Z,0.00
2018-07-26T01:23:31.378Z,0.00
2018-07-26T01:24:31.622Z,0.00
2018-07-26T01:25:31.868Z,0.00
2018-07-26T01:26:32.112Z,0.00
2018-07-26T01:27:32.362Z,0.00
2018-07-26T01:28:32.601Z,0.00
2018-07-26T01:29:32.845Z,0.00
2018-07-26T01:30:33.090Z,0.00
2018-07-26T01:31:33.335Z,0.00
2018-07-26T01:32:33.581Z,0.00
2018-07-26T01:33:33.824Z,0.00
2018-07-26T01:34:34.066Z,0.00
2018-07-26T01:35:34.313Z,0.00
2018-07-26T01:36:34.558Z,0.00
2018-07-26T01:37:34.803Z,0.00
2018-07-26T01:38:35.046Z,0.00
2018-07-26T01:39:35.292Z,0.00
2018-07-26T01:40:35.538Z,0.00
2018-07-26T01:41:35.782Z,0.00
2018-07-26T01:42:36.027Z,0.00
2018-07-26T01:43:36.272Z,0.00
2018-07-26T01:44:36.517Z,0.00
2018-07-26T01:45:36.761Z,0.00
2018-07-26T01:46:37.004Z,0.00
2018-07-26T01:47:37.250Z,0.00
2018-07-26T01:48:37.490Z,0.00
2018-07-26T01:49:37.734Z,0.00
2018-07-26T01:50:37.978Z,0.00
2018-07-26T01:51:38.223Z,0.00
2018-07-26T01:52:38.466Z,0.00
2018-07-26T01:53:38.712Z,0.00
2018-07-26T01:54:38.960Z,0.00
2018-07-26T01:55:39.199Z,0.00
2018-07-26T01:56:39.445Z,0.00
2018-07-26T01:57:39.689Z,0.00
2018-07-26T01:58:39.932Z,0.00
2018-07-26T01:59:40.174Z,0.00
2018-07-26T02:00:40.420Z,0.00
2018-07-26T02:01:40.676Z,0.00
2018-07-26T02:02:40.909Z,0.00
2018-07-26T02:03:41.152Z,0.00
2018-07-26T02:04:41.396Z,0.00
2018-07-26T02:05:41.641Z,0.00
2018-07-26T02:06:41.883Z,0.00
2018-07-26T02:07:42.129Z,0.00
2018-07-26T02:08:42.372Z,0.00
2018-07-26T02:09:42.617Z,0.00
2018-07-26T02:10:42.927Z,0.00
2018-07-26T02:11:43.109Z,0.00
2018-07-26T02:12:43.353Z,0.00
2018-07-26T02:13:43.600Z,0.00
2018-07-26T02:14:43.843Z,0.00
2018-07-26T02:15:44.088Z,0.00
2018-07-26T02:16:44.332Z,0.00
2018-07-26T02:17:44.581Z,0.00
2018-07-26T02:18:44.822Z,0.00
2018-07-26T02:19:45.066Z,0.00
2018-07-26T02:20:45.316Z,0.00
2018-07-26T02:21:45.553Z,0.00
2018-07-26T02:22:45.796Z,0.00
2018-07-26T02:23:46.041Z,0.00
2018-07-26T02:24:46.286Z,0.00
2018-07-26T02:25:46.527Z,0.00
2018-07-26T02:26:46.775Z,0.00
2018-07-26T02:27:47.016Z,0.00
2018-07-26T02:28:47.260Z,0.00
2018-07-26T02:29:47.504Z,0.00
2018-07-26T02:30:47.748Z,0.00
2018-07-26T02:31:47.993Z,0.00
2018-07-26T02:32:48.236Z,0.00
2018-07-26T02:33:48.480Z,0.00
2018-07-26T02:34:48.725Z,0.00
2018-07-26T02:35:48.970Z,0.00
2018-07-26T02:36:49.266Z,0.00
2018-07-26T02:37:49.457Z,0.00
2018-07-26T02:38:49.702Z,0.00
2018-07-26T02:39:49.950Z,0.00
2018-07-26T02:40:50.191Z,0.00
2018-07-26T02:41:50.432Z,0.00
2018-07-26T02:42:50.679Z,0.00
2018-07-26T02:43:50.925Z,0.00
2018-07-26T02:44:51.168Z,0.00
2018-07-26T02:45:51.413Z,0.00
2018-07-26T02:46:51.658Z,0.00
2018-07-26T02:47:51.907Z,0.00
2018-07-26T02:48:52.148Z,0.00
2018-07-26T02:49:52.393Z,0.00
2018-07-26T02:50:52.636Z,0.00
2018-07-26T02:51:52.881Z,0.00
2018-07-26T02:52:53.127Z,0.00
2018-07-26T02:53:53.369Z,0.00
2018-07-26T02:54:53.615Z,0.00
2018-07-26T02:55:53.859Z,0.00
2018-07-26T02:56:54.093Z,0.00
2018-07-26T02:57:54.351Z,4.00
2018-07-26T02:58:54.595Z,4.00
2018-07-26T02:59:54.847Z,0.00
2018-07-26T03:00:55.084Z,4.00
2018-07-26T03:01:55.329Z,4.00
2018-07-26T03:02:55.586Z,0.00
2018-07-26T03:03:55.816Z,4.00
2018-07-26T03:04:56.061Z,8.00
2018-07-26T03:05:56.306Z,4.00
2018-07-26T03:06:56.551Z,4.00
2018-07-26T03:07:56.794Z,8.00
2018-07-26T03:08:57.040Z,12.00
2018-07-26T03:09:57.284Z,12.00
2018-07-26T03:10:57.527Z,12.00
2018-07-26T03:11:57.769Z,12.00
2018-07-26T03:12:58.013Z,20.00
2018-07-26T03:13:58.259Z,20.00
2018-07-26T03:14:58.501Z,24.00
2018-07-26T03:15:58.742Z,28.00
2018-07-26T03:16:58.987Z,32.00
2018-07-26T03:17:59.231Z,36.00
2018-07-26T03:18:59.476Z,40.00
2018-07-26T03:19:59.719Z,44.00
2018-07-26T03:21:00.104Z,52.00
2018-07-26T03:22:00.207Z,60.00
2018-07-26T03:23:00.453Z,68.00
2018-07-26T03:24:00.697Z,76.00
2018-07-26T03:25:00.938Z,88.00
2018-07-26T03:26:01.186Z,100.00
2018-07-26T03:27:01.423Z,112.00
2018-07-26T03:28:01.668Z,124.00
2018-07-26T03:29:01.911Z,140.00
2018-07-26T03:30:02.165Z,160.00
2018-07-26T03:31:02.399Z,176.00
2018-07-26T03:32:02.643Z,200.00
2018-07-26T03:33:02.889Z,224.00
2018-07-26T03:34:03.129Z,244.00
2018-07-26T03:35:03.377Z,272.00
2018-07-26T03:36:03.619Z,296.00
2018-07-26T03:37:06.749Z,324.00
2018-07-26T03:38:04.232Z,356.00
2018-07-26T03:39:04.476Z,384.00
2018-07-26T03:40:04.713Z,416.00
2018-07-26T03:41:04.952Z,452.00
2018-07-26T03:42:05.198Z,488.00
2018-07-26T03:43:05.442Z,528.00
2018-07-26T03:44:05.686Z,564.00
2018-07-26T03:45:05.937Z,608.00
2018-07-26T03:46:06.174Z,648.00
2018-07-26T03:47:06.419Z,692.00
2018-07-26T03:48:06.663Z,740.00
2018-07-26T03:49:06.907Z,784.00
2018-07-26T03:50:07.153Z,836.00
2018-07-26T03:51:07.409Z,880.00
2018-07-26T03:52:07.640Z,932.00
2018-07-26T03:53:07.884Z,980.00
2018-07-26T03:54:08.128Z,1028.00
2018-07-26T03:55:08.372Z,1080.00
2018-07-26T03:56:08.616Z,1136.00
2018-07-26T03:57:08.860Z,1188.00
2018-07-26T03:58:09.104Z,1244.00
2018-07-26T03:59:09.348Z,1296.00
2018-07-26T04:00:09.593Z,1352.00
2018-07-26T04:01:09.837Z,1408.00
2018-07-26T04:02:10.080Z,1464.00
2018-07-26T04:03:10.333Z,1516.00
2018-07-26T04:04:10.571Z,1572.00
2018-07-26T04:05:10.811Z,1632.00
2018-07-26T04:06:11.056Z,1716.00
2018-07-26T04:07:11.299Z,1820.00
2018-07-26T04:08:11.544Z,1916.00
2018-07-26T04:09:11.788Z,1988.00
2018-07-26T04:10:12.033Z,2052.00
2018-07-26T04:11:12.277Z,2116.00
2018-07-26T04:12:12.523Z,2180.00
2018-07-26T04:13:12.766Z,2244.00
2018-07-26T04:14:13.009Z,2304.00
2018-07-26T04:15:13.253Z,2364.00
2018-07-26T04:16:13.499Z,2428.00
2018-07-26T04:17:13.743Z,2492.00
2018-07-26T04:18:13.987Z,2552.00
2018-07-26T04:19:14.232Z,2620.00
2018-07-26T04:20:14.478Z,2680.00
2018-07-26T04:21:14.723Z,2744.00
2018-07-26T04:22:14.969Z,2804.00
2018-07-26T04:23:15.214Z,2864.00
2018-07-26T04:24:15.462Z,2924.00
2018-07-26T04:25:15.704Z,2980.00
2018-07-26T04:26:15.950Z,3032.00
2018-07-26T04:27:16.194Z,3088.00
2018-07-26T04:28:16.439Z,3148.00
2018-07-26T04:29:16.685Z,3204.00
2018-07-26T04:30:16.929Z,3260.00
2018-07-26T04:31:17.174Z,3312.00
2018-07-26T04:32:17.446Z,3364.00
2018-07-26T04:33:17.682Z,3416.00
2018-07-26T04:34:17.906Z,3476.00
2018-07-26T04:35:18.151Z,3532.00
2018-07-26T04:36:18.394Z,3588.00
2018-07-26T04:37:18.639Z,3644.00
2018-07-26T04:38:18.883Z,3692.00
2018-07-26T04:39:19.129Z,3740.00
2018-07-26T04:40:19.373Z,3792.00
2018-07-26T04:41:19.619Z,3836.00
2018-07-26T04:42:19.863Z,3876.00
2018-07-26T04:43:20.108Z,3904.00
2018-07-26T04:44:20.352Z,3932.00
2018-07-26T04:45:20.598Z,3972.00
2018-07-26T04:46:20.841Z,4040.00
2018-07-26T04:47:21.090Z,4132.00
2018-07-26T04:48:21.332Z,4172.00
2018-07-26T04:49:21.576Z,4212.00
2018-07-26T04:50:21.822Z,4252.00
2018-07-26T04:51:22.067Z,4292.00
2018-07-26T04:52:22.311Z,4340.00
2018-07-26T04:53:22.557Z,4392.00
2018-07-26T04:54:22.801Z,4436.00
2018-07-26T04:55:23.045Z,4528.00
2018-07-26T04:56:23.290Z,4604.00
2018-07-26T04:57:23.535Z,4648.00
2018-07-26T04:58:23.781Z,4680.00
2018-07-26T04:59:24.023Z,4748.00
2018-07-26T05:00:24.268Z,4856.00
2018-07-26T05:01:24.512Z,4892.00
2018-07-26T05:02:24.758Z,4888.00
2018-07-26T05:03:25.003Z,4884.00
2018-07-26T05:04:25.247Z,4924.00
2018-07-26T05:05:25.492Z,4940.00
2018-07-26T05:06:25.737Z,4952.00
2018-07-26T05:07:25.981Z,4968.00
2018-07-26T05:08:26.225Z,4984.00
2018-07-26T05:09:26.471Z,5000.00
2018-07-26T05:10:26.716Z,5004.00
2018-07-26T05:11:26.961Z,5020.00
2018-07-26T05:12:27.207Z,5016.00
2018-07-26T05:13:27.451Z,5044.00
2018-07-26T05:14:27.702Z,5084.00
2018-07-26T05:15:27.940Z,5104.00
2018-07-26T05:16:28.185Z,5136.00
2018-07-26T05:17:28.433Z,5172.00
2018-07-26T05:18:28.690Z,5200.00
2018-07-26T05:19:28.921Z,5220.00
2018-07-26T05:20:29.168Z,5284.00
2018-07-26T05:21:29.413Z,5352.00
2018-07-26T05:22:29.658Z,5408.00
2018-07-26T05:23:29.905Z,5452.00
2018-07-26T05:24:30.153Z,5488.00
2018-07-26T05:25:30.397Z,5520.00
2018-07-26T05:26:30.644Z,5548.00
2018-07-26T05:27:30.890Z,5576.00
2018-07-26T05:28:31.136Z,5628.00
2018-07-26T05:29:31.383Z,5696.00
2018-07-26T05:30:31.628Z,5780.00
2018-07-26T05:31:31.875Z,5844.00
2018-07-26T05:32:32.118Z,5928.00
2018-07-26T05:33:32.367Z,5996.00
2018-07-26T05:34:32.619Z,6036.00
2018-07-26T05:35:32.862Z,6064.00
2018-07-26T05:36:33.108Z,6084.00
2018-07-26T05:37:33.394Z,6092.00
2018-07-26T05:38:33.611Z,6092.00
2018-07-26T05:39:33.848Z,6108.00
2018-07-26T05:40:34.090Z,6132.00
2018-07-26T05:41:34.339Z,6152.00
2018-07-26T05:42:34.584Z,6176.00
2018-07-26T05:43:34.830Z,6224.00
2018-07-26T05:44:35.077Z,6272.00
2018-07-26T05:45:35.323Z,6320.00
2018-07-26T05:46:35.567Z,6364.00
2018-07-26T05:47:35.816Z,6416.00
2018-07-26T05:48:36.060Z,6468.00
2018-07-26T05:49:36.307Z,6512.00
2018-07-26T05:50:36.553Z,6552.00
2018-07-26T05:51:36.801Z,6584.00
2018-07-26T05:52:37.045Z,6604.00
2018-07-26T05:53:37.294Z,6612.00
2018-07-26T05:54:37.541Z,6624.00
2018-07-26T05:55:37.850Z,6636.00
2018-07-26T05:56:38.094Z,6648.00
2018-07-26T05:57:38.351Z,6652.00
2018-07-26T05:58:38.590Z,6648.00
2018-07-26T05:59:38.833Z,6660.00
2018-07-26T06:00:39.080Z,6664.00
2018-07-26T06:01:39.327Z,6660.00
2018-07-26T06:02:39.574Z,6668.00
2018-07-26T06:03:39.821Z,6628.00
2018-07-26T06:04:40.068Z,6680.00
2018-07-26T06:05:40.316Z,6684.00
2018-07-26T06:06:40.562Z,6684.00
2018-07-26T06:07:40.810Z,6692.00
2018-07-26T06:08:41.055Z,6680.00
2018-07-26T06:09:41.341Z,6688.00
2018-07-26T06:10:41.551Z,6684.00
2018-07-26T06:11:41.798Z,6676.00
2018-07-26T06:12:42.051Z,6676.00
2018-07-26T06:13:42.292Z,6668.00
2018-07-26T06:14:42.538Z,6676.00
2018-07-26T06:15:42.788Z,6668.00
2018-07-26T06:16:43.032Z,6668.00
2018-07-26T06:17:43.280Z,6664.00
2018-07-26T06:18:43.527Z,6668.00
2018-07-26T06:19:43.776Z,6676.00
2018-07-26T06:20:44.045Z,6688.00
2018-07-26T06:21:44.269Z,6688.00
2018-07-26T06:22:44.514Z,6692.00
2018-07-26T06:23:44.763Z,6692.00
2018-07-26T06:24:45.009Z,6696.00
2018-07-26T06:25:45.256Z,6704.00
2018-07-26T06:26:45.503Z,6712.00
2018-07-26T06:27:45.755Z,6724.00
2018-07-26T06:28:46.001Z,6736.00
2018-07-26T06:29:46.249Z,6744.00
2018-07-26T06:30:46.497Z,6752.00
2018-07-26T06:31:46.748Z,6756.00
2018-07-26T06:32:46.991Z,6760.00
2018-07-26T06:33:47.291Z,6768.00
2018-07-26T06:34:47.487Z,6772.00
2018-07-26T06:35:47.737Z,6792.00
2018-07-26T06:36:47.984Z,6804.00
2018-07-26T06:37:48.231Z,6832.00
2018-07-26T06:38:48.478Z,6852.00
2018-07-26T06:39:48.726Z,6876.00
2018-07-26T06:40:48.974Z,6900.00
2018-07-26T06:41:49.224Z,6924.00
2018-07-26T06:42:49.471Z,6944.00
2018-07-26T06:43:49.721Z,6976.00
2018-07-26T06:44:49.968Z,7000.00
2018-07-26T06:45:50.216Z,7024.00
2018-07-26T06:46:50.464Z,7044.00
2018-07-26T06:47:50.714Z,7052.00
2018-07-26T06:48:50.960Z,7072.00
2018-07-26T06:49:51.206Z,7092.00
2018-07-26T06:50:51.456Z,7108.00
2018-07-26T06:51:51.705Z,7136.00
2018-07-26T06:52:51.982Z,7156.00
2018-07-26T06:53:52.203Z,7176.00
2018-07-26T06:54:52.452Z,7200.00
2018-07-26T06:55:52.691Z,7220.00
2018-07-26T06:56:52.940Z,7248.00
2018-07-26T06:57:53.188Z,7280.00
2018-07-26T06:58:53.436Z,7312.00
2018-07-26T06:59:53.683Z,7348.00
2018-07-26T07:00:53.946Z,7376.00
2018-07-26T07:01:54.179Z,7404.00
2018-07-26T07:02:54.426Z,7432.00
2018-07-26T07:03:54.674Z,7464.00
2018-07-26T07:04:54.922Z,7488.00
2018-07-26T07:05:55.170Z,7516.00
2018-07-26T07:06:55.421Z,7544.00
2018-07-26T07:07:55.667Z,7572.00
2018-07-26T07:08:55.915Z,7596.00
2018-07-26T07:09:56.165Z,7628.00
2018-07-26T07:10:56.414Z,7652.00
2018-07-26T07:11:56.662Z,7768.00
2018-07-26T07:12:56.910Z,9684.00
2018-07-26T07:13:57.159Z,11904.00
2018-07-26T07:14:57.405Z,13520.00
2018-07-26T07:15:57.656Z,13352.00
2018-07-26T07:16:57.902Z,12152.00
2018-07-26T07:17:58.150Z,12340.00
2018-07-26T07:18:58.398Z,12152.00
2018-07-26T07:19:58.646Z,11704.00
2018-07-26T07:20:58.894Z,12272.00
2018-07-26T07:21:59.145Z,12128.00
2018-07-26T07:22:59.398Z,12372.00
2018-07-26T07:23:59.646Z,12668.00
2018-07-26T07:24:59.892Z,11736.00
2018-07-26T07:26:00.146Z,11176.00
2018-07-26T07:27:00.395Z,11128.00
2018-07-26T07:28:00.645Z,11416.00
2018-07-26T07:29:00.893Z,11956.00
2018-07-26T07:30:01.145Z,11572.00
2018-07-26T07:31:01.395Z,11052.00
2018-07-26T07:32:01.646Z,11340.00
2018-07-26T07:33:01.898Z,11900.00
2018-07-26T07:34:02.146Z,11672.00
2018-07-26T07:35:02.402Z,11064.00
2018-07-26T07:36:02.650Z,11116.00
2018-07-26T07:37:02.913Z,11456.00
2018-07-26T07:38:03.164Z,11644.00
2018-07-26T07:39:03.417Z,11316.00
2018-07-26T07:40:03.670Z,11016.00
2018-07-26T07:41:03.923Z,10964.00
2018-07-26T07:42:04.173Z,11064.00
2018-07-26T07:43:04.429Z,11076.00
2018-07-26T07:44:04.679Z,11116.00
2018-07-26T07:45:04.932Z,11156.00
2018-07-26T07:46:05.185Z,11112.00
2018-07-26T07:47:05.441Z,11152.00
2018-07-26T07:48:05.691Z,11236.00
2018-07-26T07:49:05.944Z,11188.00
2018-07-26T07:50:06.200Z,11168.00
2018-07-26T07:51:06.454Z,11820.00
2018-07-26T07:52:06.708Z,12260.00
2018-07-26T07:53:06.963Z,12884.00
2018-07-26T07:54:07.260Z,12728.00
2018-07-26T07:55:07.512Z,12272.00
2018-07-26T07:56:07.769Z,12200.00
2018-07-26T07:57:08.058Z,13600.00
2018-07-26T07:58:08.314Z,12728.00
2018-07-26T07:59:08.573Z,13148.00
2018-07-26T08:00:08.825Z,13972.00
2018-07-26T08:01:09.081Z,14332.00
2018-07-26T08:02:09.368Z,13248.00
2018-07-26T08:03:09.624Z,13392.00
2018-07-26T08:04:09.880Z,14924.00
2018-07-26T08:05:10.143Z,14328.00
2018-07-26T08:06:10.391Z,14216.00
2018-07-26T08:07:10.647Z,13744.00
2018-07-26T08:08:10.903Z,13424.00
2018-07-26T08:09:11.157Z,13204.00
2018-07-26T08:10:11.413Z,13356.00
2018-07-26T08:11:11.696Z,14708.00
2018-07-26T08:12:11.928Z,15816.00
2018-07-26T08:13:12.192Z,16080.00
2018-07-26T08:14:12.454Z,16004.00
2018-07-26T08:15:12.712Z,15580.00
2018-07-26T08:16:12.972Z,15168.00
2018-07-26T08:17:13.224Z,15320.00
2018-07-26T08:18:13.508Z,14608.00
2018-07-26T08:19:13.769Z,14884.00
2018-07-26T08:20:14.026Z,16192.00
2018-07-26T08:21:14.293Z,17600.00
2018-07-26T08:22:14.541Z,19232.00
2018-07-26T08:23:14.825Z,18720.00
2018-07-26T08:24:15.082Z,17312.00
2018-07-26T08:25:15.371Z,15612.00
2018-07-26T08:26:15.629Z,15448.00
2018-07-26T08:27:15.886Z,15340.00
2018-07-26T08:28:16.141Z,15292.00
2018-07-26T08:29:16.450Z,17888.00
2018-07-26T08:30:16.656Z,21216.00
2018-07-26T08:31:16.929Z,23328.00
2018-07-26T08:32:17.193Z,23296.00
2018-07-26T08:33:17.449Z,25216.00
2018-07-26T08:34:17.704Z,24640.00
2018-07-26T08:35:17.959Z,23936.00
2018-07-26T08:36:18.219Z,24320.00
2018-07-26T08:37:18.546Z,26464.00
2018-07-26T08:38:18.813Z,29568.00
2018-07-26T08:39:19.095Z,31424.00
2018-07-26T08:40:19.366Z,30848.00
2018-07-26T08:41:19.659Z,24768.00
2018-07-26T08:42:19.919Z,33216.00
2018-07-26T08:43:20.177Z,28288.00
2018-07-26T08:44:20.436Z,32512.00
2018-07-26T08:45:20.692Z,33312.00
2018-07-26T08:46:20.950Z,35232.00
2018-07-26T08:47:21.207Z,36288.00
2018-07-26T08:48:21.465Z,36512.00
2018-07-26T08:49:21.722Z,36000.00
2018-07-26T08:50:21.980Z,38112.00
2018-07-26T08:51:22.237Z,39904.00
2018-07-26T08:52:22.495Z,39264.00
2018-07-26T08:53:22.756Z,37568.00
2018-07-26T08:54:23.012Z,37536.00
2018-07-26T08:55:23.268Z,38784.00
2018-07-26T08:56:23.527Z,41024.00
2018-07-26T08:57:23.784Z,42688.00
2018-07-26T08:58:24.045Z,42272.00
2018-07-26T08:59:24.301Z,40576.00
2018-07-26T09:00:24.561Z,40480.00
2018-07-26T09:01:24.821Z,42048.00
2018-07-26T09:02:25.080Z,45024.00
2018-07-26T09:03:25.335Z,47392.00
2018-07-26T09:04:25.632Z,46432.00
2018-07-26T09:05:25.856Z,44448.00
2018-07-26T09:06:26.115Z,44512.00
2018-07-26T09:07:26.442Z,45792.00
2018-07-26T09:08:26.699Z,49152.00
2018-07-26T09:09:26.960Z,48640.00
2018-07-26T09:10:27.218Z,49248.00
2018-07-26T09:11:27.514Z,51552.00
2018-07-26T09:12:27.742Z,52416.00
2018-07-26T09:13:28.023Z,50784.00
2018-07-26T09:14:28.259Z,49408.00
2018-07-26T09:15:28.527Z,49792.00
2018-07-26T09:16:28.783Z,49792.00
2018-07-26T09:17:29.040Z,50976.00
2018-07-26T09:18:29.300Z,51840.00
2018-07-26T09:19:29.559Z,51776.00
2018-07-26T09:20:29.820Z,52480.00
2018-07-26T09:21:30.080Z,53120.00
2018-07-26T09:22:30.339Z,54848.00
2018-07-26T09:23:30.599Z,53728.00
2018-07-26T09:24:31.012Z,53472.00
2018-07-26T09:25:31.246Z,53568.00
2018-07-26T09:26:31.509Z,53280.00
2018-07-26T09:27:31.768Z,55936.00
2018-07-26T09:28:32.028Z,59904.00
2018-07-26T09:29:32.414Z,58272.00
2018-07-26T09:30:32.680Z,57056.00
2018-07-26T09:31:33.011Z,56736.00
2018-07-26T09:32:33.312Z,58976.00
2018-07-26T09:33:33.572Z,61312.00
2018-07-26T09:34:33.833Z,61824.00
2018-07-26T09:35:34.178Z,61696.00
2018-07-26T09:36:35.333Z,62528.00
2018-07-26T09:37:34.673Z,60672.00
2018-07-26T09:38:34.934Z,59616.00
2018-07-26T09:39:35.195Z,59616.00
2018-07-26T09:40:35.457Z,60736.00
2018-07-26T09:41:35.800Z,61760.00
2018-07-26T09:42:36.049Z,61632.00
2018-07-26T09:43:36.310Z,63936.00
2018-07-26T09:44:36.574Z,63104.00
2018-07-26T09:45:36.836Z,64192.00
2018-07-26T09:46:37.094Z,65312.00
2018-07-26T09:47:37.353Z,67264.00
2018-07-26T09:48:37.613Z,64896.00
2018-07-26T09:49:37.904Z,61888.00
2018-07-26T09:50:38.133Z,64640.00
2018-07-26T09:51:38.392Z,64896.00
2018-07-26T09:52:38.654Z,66112.00
2018-07-26T09:53:38.912Z,71168.00
2018-07-26T09:54:39.173Z,70464.00
2018-07-26T09:55:39.457Z,69824.00
2018-07-26T09:56:39.716Z,71264.00
2018-07-26T09:57:39.976Z,68800.00
2018-07-26T09:58:40.236Z,67296.00
2018-07-26T09:59:40.497Z,69600.00
2018-07-26T10:00:40.757Z,69824.00
2018-07-26T10:01:41.018Z,69440.00
2018-07-26T10:02:41.279Z,70880.00
2018-07-26T10:03:41.553Z,71040.00
2018-07-26T10:04:41.801Z,69152.00
2018-07-26T10:05:42.065Z,69184.00
2018-07-26T10:06:42.324Z,72224.00
2018-07-26T10:07:42.586Z,73312.00
2018-07-26T10:08:42.846Z,73440.00
2018-07-26T10:09:43.108Z,73504.00
2018-07-26T10:10:43.373Z,69632.00
2018-07-26T10:11:43.631Z,76192.00
2018-07-26T10:12:43.892Z,78752.00
2018-07-26T10:13:44.151Z,78240.00
2018-07-26T10:14:44.411Z,74176.00
2018-07-26T10:15:44.732Z,75360.00
2018-07-26T10:16:44.932Z,79744.00
2018-07-26T10:17:45.193Z,80224.00
2018-07-26T10:18:45.453Z,80608.00
2018-07-26T10:19:45.714Z,78688.00
2018-07-26T10:20:45.975Z,78176.00
2018-07-26T10:21:46.236Z,79040.00
2018-07-26T10:22:46.497Z,80672.00
2018-07-26T10:23:46.758Z,77920.00
2018-07-26T10:24:47.013Z,77408.00
2018-07-26T10:25:47.273Z,77632.00
2018-07-26T10:26:47.534Z,79008.00
2018-07-26T10:27:47.840Z,79552.00
2018-07-26T10:28:48.056Z,77440.00
2018-07-26T10:29:48.318Z,76256.00
2018-07-26T10:30:48.578Z,79744.00
2018-07-26T10:31:48.842Z,82112.00
2018-07-26T10:32:49.102Z,80384.00
2018-07-26T10:33:49.361Z,79840.00
2018-07-26T10:34:49.624Z,77792.00
2018-07-26T10:35:49.894Z,79072.00
2018-07-26T10:36:50.148Z,81184.00
2018-07-26T10:37:50.405Z,84512.00
2018-07-26T10:38:50.667Z,84960.00
2018-07-26T10:39:50.927Z,82176.00
2018-07-26T10:40:51.186Z,80864.00
2018-07-26T10:41:51.445Z,82656.00
2018-07-26T10:42:51.731Z,85856.00
2018-07-26T10:43:51.972Z,87264.00
2018-07-26T10:44:52.227Z,84736.00
2018-07-26T10:45:52.488Z,81344.00
2018-07-26T10:46:52.748Z,83648.00
2018-07-26T10:47:53.010Z,86880.00
2018-07-26T10:48:53.270Z,84640.00
2018-07-26T10:49:53.568Z,84608.00
2018-07-26T10:50:53.792Z,83456.00
2018-07-26T10:51:54.056Z,81152.00
2018-07-26T10:52:54.315Z,77696.00
2018-07-26T10:53:54.575Z,81376.00
2018-07-26T10:54:54.837Z,84512.00
2018-07-26T10:55:55.103Z,83392.00
2018-07-26T10:56:55.360Z,77824.00
2018-07-26T10:57:55.621Z,79040.00
2018-07-26T10:58:55.883Z,82816.00
2018-07-26T10:59:56.142Z,82528.00
2018-07-26T11:00:56.404Z,79424.00
2018-07-26T11:01:56.666Z,77120.00
2018-07-26T11:02:56.926Z,80480.00
2018-07-26T11:03:57.194Z,81792.00
2018-07-26T11:04:57.450Z,81376.00
2018-07-26T11:05:57.711Z,81728.00
2018-07-26T11:06:57.970Z,83328.00
2018-07-26T11:07:58.235Z,83424.00
2018-07-26T11:08:58.498Z,82464.00
2018-07-26T11:09:58.763Z,83008.00
2018-07-26T11:10:59.026Z,80736.00
2018-07-26T11:11:59.344Z,80320.00
2018-07-26T11:12:59.618Z,82464.00
2018-07-26T11:13:59.879Z,84960.00
2018-07-26T11:15:00.150Z,87872.00
2018-07-26T11:16:00.433Z,85760.00
2018-07-26T11:17:00.699Z,82368.00
2018-07-26T11:18:00.959Z,84160.00
2018-07-26T11:19:01.265Z,88640.00
2018-07-26T11:20:01.483Z,88352.00
2018-07-26T11:21:01.749Z,86688.00
2018-07-26T11:22:02.005Z,87264.00
2018-07-26T11:23:02.264Z,85760.00
2018-07-26T11:24:02.532Z,82560.00
2018-07-26T11:25:02.789Z,79392.00
2018-07-26T11:26:03.050Z,82624.00
2018-07-26T11:27:03.378Z,86208.00
2018-07-26T11:28:03.613Z,85536.00
2018-07-26T11:29:03.870Z,85376.00
2018-07-26T11:30:04.204Z,87520.00
2018-07-26T11:31:04.409Z,89984.00
2018-07-26T11:32:04.671Z,89952.00
2018-07-26T11:33:04.936Z,85184.00
2018-07-26T11:34:05.238Z,85792.00
2018-07-26T11:35:05.537Z,88544.00
2018-07-26T11:36:05.821Z,89696.00
2018-07-26T11:37:06.084Z,86880.00
2018-07-26T11:38:06.383Z,86432.00
2018-07-26T11:39:06.641Z,85280.00
2018-07-26T11:40:06.924Z,83712.00
2018-07-26T11:41:07.186Z,81952.00
2018-07-26T11:42:07.485Z,82112.00
2018-07-26T11:43:07.768Z,88352.00
2018-07-26T11:44:08.053Z,92128.00
2018-07-26T11:45:08.317Z,89568.00
2018-07-26T11:46:08.578Z,85600.00
2018-07-26T11:47:08.838Z,86016.00
2018-07-26T11:48:09.100Z,89216.00
2018-07-26T11:49:09.362Z,92064.00
2018-07-26T11:50:09.665Z,91264.00
2018-07-26T11:51:09.955Z,91360.00
2018-07-26T11:52:10.235Z,89728.00
2018-07-26T11:53:10.527Z,92672.00
2018-07-26T11:54:10.784Z,96448.00
2018-07-26T11:55:11.070Z,92320.00
2018-07-26T11:56:11.379Z,87808.00
2018-07-26T11:57:11.643Z,92288.00
2018-07-26T11:58:11.945Z,93504.00
2018-07-26T11:59:12.198Z,90976.00
2018-07-26T12:00:12.499Z,92832.00
2018-07-26T12:01:12.760Z,91968.00
2018-07-26T12:02:13.020Z,86176.00
2018-07-26T12:03:13.280Z,83552.00
2018-07-26T12:04:13.586Z,87296.00
2018-07-26T12:05:13.849Z,94944.00
2018-07-26T12:06:14.126Z,95936.00
2018-07-26T12:07:14.366Z,91104.00
2018-07-26T12:08:14.696Z,89248.00
2018-07-26T12:09:14.889Z,89792.00
2018-07-26T12:10:15.151Z,93024.00
2018-07-26T12:11:15.414Z,95168.00
2018-07-26T12:12:15.677Z,94784.00
2018-07-26T12:13:15.984Z,91648.00
2018-07-26T12:14:16.261Z,90176.00
2018-07-26T12:15:16.518Z,95360.00
2018-07-26T12:16:16.775Z,92032.00
2018-07-26T12:17:17.037Z,91712.00
2018-07-26T12:18:17.295Z,93760.00